KBDE

Details ICAO KBDE (BDE)
Name BAUDETTE INTL
Region United States
Timezone America/Chicago (UTC-6.0)
Plans Departing 0
Arriving 2
Stats Elevation 1,086 ft / 331 m (AMSL)
Location 48.728445° -94.612208°
Runways 1
Magnetic Variation 0.911° E
Sunrise 2017-12-17 14:07:46 UTC / 2017-12-17 08:07:46 Local
Sunset 2017-12-17 22:24:21 UTC / 2017-12-17 16:24:21 Local
Advertisement - Login to hide

Runways

ID Width Length Bearing (true) Bearing (mag) Surface Threshold Offset Overrun Length
12 100 ft / 30 m 5,487 ft / 1,673 m 120.89° 119.98° Asphalt 0 ft / 0 m 0 ft / 0 m
30 100 ft / 30 m 5,487 ft / 1,673 m 300.91° 300.00° Asphalt 0 ft / 0 m 0 ft / 0 m

Map

Weather


0- 5 10 15 20 25 30 35+ Temperature / ° C

Clouds and Precipitation
Forecast for 2017-12-18 00:00 UTC. Updated 37 minutes ago

Ground ~20,000 ft ~40,000 ft Winds

METAR

KBDE 172053Z AUTO 25006KT 10SM CLR M01/M06 A2985 RMK AO2 SLP127 T10111056 56025

TAF

Not found

Frequencies

Recorded 126.77 MHz ASOS
Unicom 122.80 MHz CTAF/UNICOM
Warning: Do not use this data for real-world aviation or navigation. No guarantee of current accuracy is given.